Florence, MS (39073)

10:31 AM CDT die 17o August, anno 2017 (GMT -0500)
Whites Cove | | Change Station

Elev 322 ft 32.14 °N, 90.14 °W | Updated 11 minutes ago

Partialiter Nubila
Partialiter Nubila
84.1 °F
Feels Like 98 °F
N
0.0
Ventus Variabilis Ventus from Inter Aquilonem et Zephyrus
Gusts 2.0 mph

Hodie
High -- | Low -- °F
--% Chance of Precip.
Yesterday
High -- | Low -- °F
Precip. -- in
Pressio 30.10 in
Visibilitas 10.0 milia passuum
Clouds Nubes Dispersae 1300 ft
Index Caloris 98 °F
Frigus in quo Ros apparet 80 °F
Umor 88%
Rainfall 0.00 in
Snow Depth Not available.
6:26 AM 7:42 PM
Waning Crescent, 22% visible
SPECI KJAN 171507Z 22008KT 10SM SCT013 29/25 A3010 RMK AO2 T02890250
Pressio 30.10 in
Visibilitas 10.0 milia passuum
Clouds Nubes Dispersae 1300 ft
Index Caloris 98 °F
Frigus in quo Ros apparet 80 °F
Umor 88%
Rainfall 0.00 in
Snow Depth Not available.
6:26 AM 7:42 PM
Waning Crescent, 22% visible
SPECI KJAN 171507Z 22008KT 10SM SCT013 29/25 A3010 RMK AO2 T02890250

Get Severe Weather Alerts

Thanks for signing up!

Be on the lookout for a verification email in your inbox.

You'll start receiving the daily forecast at 6 AM.

×

10-Day Weather Forecast

Almanac

Astronomy

Aug. 17, 2017 Rise Set
Actual Time
Civil Twilight
Nautical Twilight
Astronomical Twilight
Moon
Length Of Visible Light
Length of Day
Tomorrow will be .
, % of the Moon is Illuminated

Today's Extremes

State Highs State Lows

Community

WunderPhotos

Category 6

Welcome to Category 6. This is the collective home for Weather Underground's featured writeups by Dr. Jeff Masters (right), Bob Henson (left), Chris Burt, and other regular contributors.

Nearby

Air Quality

  Air Quality AQ Index Pollutant
Not available.

Snow Depth

Station Depth Elevation

Earthquake Activity

City Distance Mag. Time & Date
Minimum magnitude displayed is 2.5.

Coastal Water Temperatures

Locus Calor

Stations

Nearby Weather Stations

Station Location Temp Frigus Venti Frigus in quo Ros apparet Umor Ventus Precip. Elev Renovata Type
                   

Watches & Warnings

There are currently no watches in effect.